sensor_id;sensor_type;location;lat;lon;timestamp;pressure;altitude;pressure_sealevel;temperature;humidity
84755;BME280;74980;50.776;-3.082;2023-12-20T00:00:20;101890.05;;;27.41;26.55
84755;BME280;74980;50.776;-3.082;2023-12-20T00:02:45;101883.12;;;27.28;26.43
84755;BME280;74980;50.776;-3.082;2023-12-20T00:05:11;101873.84;;;27.52;26.38
84755;BME280;74980;50.776;-3.082;2023-12-20T00:07:37;101867.56;;;27.72;26.33
84755;BME280;74980;50.776;-3.082;2023-12-20T00:10:01;101872.02;;;27.48;26.29
84755;BME280;74980;50.776;-3.082;2023-12-20T00:12:28;101871.22;;;27.26;26.26
84755;BME280;74980;50.776;-3.082;2023-12-20T00:14:53;101883.18;;;27.53;26.19
84755;BME280;74980;50.776;-3.082;2023-12-20T00:17:20;101883.78;;;27.25;26.15
84755;BME280;74980;50.776;-3.082;2023-12-20T00:19:44;101880.22;;;27.47;26.14
84755;BME280;74980;50.776;-3.082;2023-12-20T00:22:09;101871.91;;;27.45;26.11
84755;BME280;74980;50.776;-3.082;2023-12-20T00:24:34;101872.37;;;27.69;26.10
84755;BME280;74980;50.776;-3.082;2023-12-20T00:27:00;101875.77;;;27.45;26.09
84755;BME280;74980;50.776;-3.082;2023-12-20T00:29:27;101883.63;;;27.45;26.05
84755;BME280;74980;50.776;-3.082;2023-12-20T00:31:52;101882.50;;;27.43;26.02
84755;BME280;74980;50.776;-3.082;2023-12-20T00:34:18;101881.84;;;27.43;25.99
84755;BME280;74980;50.776;-3.082;2023-12-20T00:36:42;101876.79;;;27.43;25.95
84755;BME280;74980;50.776;-3.082;2023-12-20T00:39:08;101874.28;;;27.44;25.93
84755;BME280;74980;50.776;-3.082;2023-12-20T00:41:33;101871.77;;;27.47;25.90
84755;BME280;74980;50.776;-3.082;2023-12-20T00:44:00;101864.75;;;27.45;25.86
84755;BME280;74980;50.776;-3.082;2023-12-20T00:46:24;101863.34;;;27.44;25.84
84755;BME280;74980;50.776;-3.082;2023-12-20T00:48:49;101864.19;;;27.19;25.84
84755;BME280;74980;50.776;-3.082;2023-12-20T00:51:15;101856.81;;;27.44;25.83
84755;BME280;74980;50.776;-3.082;2023-12-20T00:53:42;101853.54;;;27.43;25.80
84755;BME280;74980;50.776;-3.082;2023-12-20T00:56:06;101852.35;;;27.64;25.79
84755;BME280;74980;50.776;-3.082;2023-12-20T00:58:32;101857.38;;;27.43;25.77
84755;BME280;74980;50.776;-3.082;2023-12-20T01:00:57;101859.57;;;27.40;25.76
84755;BME280;74980;50.776;-3.082;2023-12-20T01:03:24;101856.17;;;27.62;25.77
84755;BME280;74980;50.776;-3.082;2023-12-20T01:05:48;101853.85;;;27.62;25.78
84755;BME280;74980;50.776;-3.082;2023-12-20T01:08:13;101849.83;;;27.59;25.79
84755;BME280;74980;50.776;-3.082;2023-12-20T01:10:41;101847.72;;;27.35;25.79
84755;BME280;74980;50.776;-3.082;2023-12-20T01:13:05;101859.12;;;27.11;25.80
84755;BME280;74980;50.776;-3.082;2023-12-20T01:15:32;101854.56;;;27.37;25.81
84755;BME280;74980;50.776;-3.082;2023-12-20T01:17:56;101848.56;;;27.37;25.82
84755;BME280;74980;50.776;-3.082;2023-12-20T01:20:21;101850.60;;;27.40;25.83
84755;BME280;74980;50.776;-3.082;2023-12-20T01:22:48;101844.18;;;27.17;25.80
84755;BME280;74980;50.776;-3.082;2023-12-20T01:25:12;101842.29;;;27.68;25.81
84755;BME280;74980;50.776;-3.082;2023-12-20T01:27:38;101840.14;;;27.24;25.81
84755;BME280;74980;50.776;-3.082;2023-12-20T01:30:04;101844.02;;;27.73;25.79
84755;BME280;74980;50.776;-3.082;2023-12-20T01:32:29;101850.96;;;27.76;25.78
84755;BME280;74980;50.776;-3.082;2023-12-20T01:34:56;101856.34;;;27.30;25.75
84755;BME280;74980;50.776;-3.082;2023-12-20T01:37:22;101856.17;;;27.80;25.75
84755;BME280;74980;50.776;-3.082;2023-12-20T01:39:47;101852.02;;;27.57;25.71
84755;BME280;74980;50.776;-3.082;2023-12-20T01:42:11;101854.30;;;27.59;25.69
84755;BME280;74980;50.776;-3.082;2023-12-20T01:44:36;101848.15;;;27.61;25.69
84755;BME280;74980;50.776;-3.082;2023-12-20T01:47:02;101842.81;;;27.63;25.68
84755;BME280;74980;50.776;-3.082;2023-12-20T01:49:28;101839.21;;;27.65;25.64
84755;BME280;74980;50.776;-3.082;2023-12-20T01:51:55;101833.33;;;27.62;25.63
84755;BME280;74980;50.776;-3.082;2023-12-20T01:54:18;101828.14;;;27.60;25.62
84755;BME280;74980;50.776;-3.082;2023-12-20T01:56:44;101823.39;;;27.84;25.62
84755;BME280;74980;50.776;-3.082;2023-12-20T01:59:10;101825.34;;;27.88;25.62
84755;BME280;74980;50.776;-3.082;2023-12-20T02:01:35;101821.28;;;27.66;25.59
84755;BME280;74980;50.776;-3.082;2023-12-20T02:04:00;101820.55;;;27.67;25.55
84755;BME280;74980;50.776;-3.082;2023-12-20T02:06:27;101817.55;;;27.67;25.55
84755;BME280;74980;50.776;-3.082;2023-12-20T02:08:53;101820.92;;;27.67;25.55
84755;BME280;74980;50.776;-3.082;2023-12-20T02:11:18;101829.10;;;27.66;25.53
84755;BME280;74980;50.776;-3.082;2023-12-20T02:13:43;101837.08;;;27.66;25.54
84755;BME280;74980;50.776;-3.082;2023-12-20T02:16:08;101845.54;;;27.67;25.55
84755;BME280;74980;50.776;-3.082;2023-12-20T02:18:35;101844.73;;;27.71;25.54
84755;BME280;74980;50.776;-3.082;2023-12-20T02:20:58;101846.88;;;27.72;25.52
84755;BME280;74980;50.776;-3.082;2023-12-20T02:23:25;101846.23;;;27.72;25.51
84755;BME280;74980;50.776;-3.082;2023-12-20T02:25:50;101843.13;;;27.95;25.48
84755;BME280;74980;50.776;-3.082;2023-12-20T02:28:16;101834.50;;;27.50;25.46
84755;BME280;74980;50.776;-3.082;2023-12-20T02:30:43;101832.93;;;27.48;25.47
84755;BME280;74980;50.776;-3.082;2023-12-20T02:33:08;101833.18;;;27.70;25.46
84755;BME280;74980;50.776;-3.082;2023-12-20T02:35:31;101829.96;;;27.70;25.45
84755;BME280;74980;50.776;-3.082;2023-12-20T02:37:57;101836.04;;;27.47;25.45
84755;BME280;74980;50.776;-3.082;2023-12-20T02:40:22;101830.66;;;27.71;25.44
84755;BME280;74980;50.776;-3.082;2023-12-20T02:42:48;101839.97;;;27.72;25.44
84755;BME280;74980;50.776;-3.082;2023-12-20T02:45:15;101843.08;;;27.72;25.44
84755;BME280;74980;50.776;-3.082;2023-12-20T02:47:40;101839.93;;;27.97;25.44
84755;BME280;74980;50.776;-3.082;2023-12-20T02:50:07;101840.05;;;27.71;25.43
84755;BME280;74980;50.776;-3.082;2023-12-20T02:52:32;101833.19;;;27.71;25.43
84755;BME280;74980;50.776;-3.082;2023-12-20T02:54:56;101836.49;;;27.71;25.43
84755;BME280;74980;50.776;-3.082;2023-12-20T02:57:21;101831.37;;;27.45;25.43
84755;BME280;74980;50.776;-3.082;2023-12-20T02:59:46;101825.21;;;27.67;25.42
84755;BME280;74980;50.776;-3.082;2023-12-20T03:02:13;101817.39;;;27.71;25.43
84755;BME280;74980;50.776;-3.082;2023-12-20T03:04:37;101813.86;;;27.69;25.42
84755;BME280;74980;50.776;-3.082;2023-12-20T03:07:03;101810.06;;;27.69;25.43
84755;BME280;74980;50.776;-3.082;2023-12-20T03:09:28;101816.38;;;27.47;25.44
84755;BME280;74980;50.776;-3.082;2023-12-20T03:11:54;101822.85;;;27.72;25.43
84755;BME280;74980;50.776;-3.082;2023-12-20T03:14:21;101820.51;;;27.74;25.44
84755;BME280;74980;50.776;-3.082;2023-12-20T03:16:50;101822.91;;;27.52;25.41
84755;BME280;74980;50.776;-3.082;2023-12-20T03:19:10;101826.38;;;27.80;25.43
84755;BME280;74980;50.776;-3.082;2023-12-20T03:21:36;101823.82;;;27.82;25.39
84755;BME280;74980;50.776;-3.082;2023-12-20T03:24:01;101831.91;;;27.87;25.36
84755;BME280;74980;50.776;-3.082;2023-12-20T03:26:28;101823.92;;;27.87;25.35
84755;BME280;74980;50.776;-3.082;2023-12-20T03:28:53;101821.85;;;27.87;25.33
84755;BME280;74980;50.776;-3.082;2023-12-20T03:31:20;101824.57;;;27.92;25.30
84755;BME280;74980;50.776;-3.082;2023-12-20T03:33:45;101823.41;;;27.92;25.29
84755;BME280;74980;50.776;-3.082;2023-12-20T03:36:11;101825.91;;;27.94;25.27
84755;BME280;74980;50.776;-3.082;2023-12-20T03:38:35;101825.10;;;27.97;25.24
84755;BME280;74980;50.776;-3.082;2023-12-20T03:41:01;101820.23;;;27.94;25.23
84755;BME280;74980;50.776;-3.082;2023-12-20T03:43:26;101827.18;;;27.96;25.22
84755;BME280;74980;50.776;-3.082;2023-12-20T03:45:52;101827.21;;;27.70;25.21
84755;BME280;74980;50.776;-3.082;2023-12-20T03:48:18;101825.98;;;27.71;25.20
84755;BME280;74980;50.776;-3.082;2023-12-20T03:50:43;101826.20;;;27.94;25.19
84755;BME280;74980;50.776;-3.082;2023-12-20T03:53:10;101815.45;;;27.96;25.18
84755;BME280;74980;50.776;-3.082;2023-12-20T03:55:33;101810.23;;;27.69;25.17
84755;BME280;74980;50.776;-3.082;2023-12-20T03:57:59;101808.85;;;27.95;25.18
84755;BME280;74980;50.776;-3.082;2023-12-20T04:00:26;101805.96;;;27.73;25.18
84755;BME280;74980;50.776;-3.082;2023-12-20T04:02:50;101807.83;;;27.99;25.18
84755;BME280;74980;50.776;-3.082;2023-12-20T04:05:15;101808.78;;;28.04;25.16
84755;BME280;74980;50.776;-3.082;2023-12-20T04:07:41;101809.83;;;28.05;25.14
84755;BME280;74980;50.776;-3.082;2023-12-20T04:10:07;101805.53;;;28.03;25.14
84755;BME280;74980;50.776;-3.082;2023-12-20T04:12:32;101804.41;;;27.80;25.12
84755;BME280;74980;50.776;-3.082;2023-12-20T04:14:58;101799.43;;;28.01;25.10
84755;BME280;74980;50.776;-3.082;2023-12-20T04:17:24;101799.64;;;28.00;25.11
84755;BME280;74980;50.776;-3.082;2023-12-20T04:19:50;101803.69;;;28.22;25.11
84755;BME280;74980;50.776;-3.082;2023-12-20T04:22:15;101797.84;;;28.03;25.10
84755;BME280;74980;50.776;-3.082;2023-12-20T04:24:39;101791.98;;;28.02;25.06
84755;BME280;74980;50.776;-3.082;2023-12-20T04:27:05;101793.32;;;27.78;25.09
84755;BME280;74980;50.776;-3.082;2023-12-20T04:29:30;101797.40;;;28.04;25.09
84755;BME280;74980;50.776;-3.082;2023-12-20T04:31:57;101791.68;;;28.05;25.06
84755;BME280;74980;50.776;-3.082;2023-12-20T04:34:22;101785.02;;;27.80;25.04
84755;BME280;74980;50.776;-3.082;2023-12-20T04:36:48;101783.20;;;28.04;25.02
84755;BME280;74980;50.776;-3.082;2023-12-20T04:39:12;101792.02;;;28.03;25.03
84755;BME280;74980;50.776;-3.082;2023-12-20T04:41:38;101785.79;;;28.01;25.01
84755;BME280;74980;50.776;-3.082;2023-12-20T04:44:03;101784.89;;;27.99;25.01
84755;BME280;74980;50.776;-3.082;2023-12-20T04:46:30;101786.01;;;28.00;25.02
84755;BME280;74980;50.776;-3.082;2023-12-20T04:48:56;101788.43;;;28.21;25.02
84755;BME280;74980;50.776;-3.082;2023-12-20T04:51:21;101788.36;;;27.92;25.01
84755;BME280;74980;50.776;-3.082;2023-12-20T04:53:45;101784.04;;;27.90;25.07
84755;BME280;74980;50.776;-3.082;2023-12-20T04:56:11;101772.12;;;27.87;25.06
84755;BME280;74980;50.776;-3.082;2023-12-20T04:58:38;101778.17;;;27.85;25.10
84755;BME280;74980;50.776;-3.082;2023-12-20T05:01:02;101780.49;;;27.88;25.11
84755;BME280;74980;50.776;-3.082;2023-12-20T05:03:27;101775.12;;;27.87;25.11
84755;BME280;74980;50.776;-3.082;2023-12-20T05:05:53;101778.73;;;27.87;25.10
84755;BME280;74980;50.776;-3.082;2023-12-20T05:08:20;101778.69;;;27.87;25.10
84755;BME280;74980;50.776;-3.082;2023-12-20T05:10:46;101772.22;;;27.86;25.12
84755;BME280;74980;50.776;-3.082;2023-12-20T05:13:09;101770.92;;;27.62;25.13
84755;BME280;74980;50.776;-3.082;2023-12-20T05:15:35;101766.34;;;27.84;25.15
84755;BME280;74980;50.776;-3.082;2023-12-20T05:18:00;101764.94;;;27.64;25.15
84755;BME280;74980;50.776;-3.082;2023-12-20T05:20:26;101766.70;;;27.86;25.16
84755;BME280;74980;50.776;-3.082;2023-12-20T05:22:53;101770.76;;;27.90;25.16
84755;BME280;74980;50.776;-3.082;2023-12-20T05:25:17;101781.88;;;27.66;25.18
84755;BME280;74980;50.776;-3.082;2023-12-20T05:27:42;101782.48;;;27.89;25.20
84755;BME280;74980;50.776;-3.082;2023-12-20T05:30:09;101776.49;;;27.89;25.18
84755;BME280;74980;50.776;-3.082;2023-12-20T05:32:33;101776.67;;;27.90;25.17
84755;BME280;74980;50.776;-3.082;2023-12-20T05:34:59;101775.81;;;27.92;25.16
84755;BME280;74980;50.776;-3.082;2023-12-20T05:37:26;101773.99;;;27.89;25.16
84755;BME280;74980;50.776;-3.082;2023-12-20T05:39:52;101769.78;;;27.91;25.14
84755;BME280;74980;50.776;-3.082;2023-12-20T05:42:16;101770.06;;;27.89;25.13
84755;BME280;74980;50.776;-3.082;2023-12-20T05:44:41;101766.62;;;27.85;25.14
84755;BME280;74980;50.776;-3.082;2023-12-20T05:47:07;101764.13;;;27.56;25.15
84755;BME280;74980;50.776;-3.082;2023-12-20T05:49:32;101760.06;;;27.79;25.18
84755;BME280;74980;50.776;-3.082;2023-12-20T05:51:57;101753.48;;;27.53;25.21
84755;BME280;74980;50.776;-3.082;2023-12-20T05:54:23;101754.10;;;27.78;25.21
84755;BME280;74980;50.776;-3.082;2023-12-20T05:56:50;101749.19;;;27.73;25.20
84755;BME280;74980;50.776;-3.082;2023-12-20T05:59:14;101747.01;;;27.78;25.27
84755;BME280;74980;50.776;-3.082;2023-12-20T06:01:39;101754.71;;;27.58;25.28
84755;BME280;74980;50.776;-3.082;2023-12-20T06:04:05;101752.28;;;27.72;25.16
84755;BME280;74980;50.776;-3.082;2023-12-20T06:06:32;101755.14;;;24.11;31.98
84755;BME280;74980;50.776;-3.082;2023-12-20T06:08:58;101763.06;;;21.87;34.92
84755;BME280;74980;50.776;-3.082;2023-12-20T06:11:23;101764.22;;;21.27;36.28
84755;BME280;74980;50.776;-3.082;2023-12-20T06:13:47;101761.13;;;21.96;35.36
84755;BME280;74980;50.776;-3.082;2023-12-20T06:16:13;101761.04;;;21.34;36.32
84755;BME280;74980;50.776;-3.082;2023-12-20T06:18:38;101759.83;;;21.36;36.29
84755;BME280;74980;50.776;-3.082;2023-12-20T06:21:04;101761.11;;;21.01;37.01
84755;BME280;74980;50.776;-3.082;2023-12-20T06:23:29;101764.56;;;20.95;37.17
84755;BME280;74980;50.776;-3.082;2023-12-20T06:25:54;101764.15;;;21.29;36.60
84755;BME280;74980;50.776;-3.082;2023-12-20T06:28:20;101767.93;;;20.92;37.30
84755;BME280;74980;50.776;-3.082;2023-12-20T06:30:45;101768.76;;;20.56;37.93
84755;BME280;74980;50.776;-3.082;2023-12-20T06:33:11;101764.37;;;21.13;36.97
84755;BME280;74980;50.776;-3.082;2023-12-20T06:35:36;101766.51;;;21.26;37.12
84755;BME280;74980;50.776;-3.082;2023-12-20T06:38:02;101770.57;;;20.96;37.18
84755;BME280;74980;50.776;-3.082;2023-12-20T06:40:27;101780.24;;;21.00;36.79
84755;BME280;74980;50.776;-3.082;2023-12-20T06:42:53;101779.14;;;20.39;37.68
84755;BME280;74980;50.776;-3.082;2023-12-20T06:45:18;101773.70;;;20.56;37.33
84755;BME280;74980;50.776;-3.082;2023-12-20T06:47:44;101779.49;;;20.29;37.64
84755;BME280;74980;50.776;-3.082;2023-12-20T06:50:09;101786.66;;;21.36;36.37
84755;BME280;74980;50.776;-3.082;2023-12-20T06:52:35;101793.22;;;20.78;37.37
84755;BME280;74980;50.776;-3.082;2023-12-20T06:55:01;101797.60;;;21.06;36.94
84755;BME280;74980;50.776;-3.082;2023-12-20T06:57:26;101794.62;;;21.18;36.69
84755;BME280;74980;50.776;-3.082;2023-12-20T06:59:56;101790.08;;;21.13;36.76
84755;BME280;74980;50.776;-3.082;2023-12-20T07:02:17;101792.46;;;21.46;36.75
84755;BME280;74980;50.776;-3.082;2023-12-20T07:04:43;101798.58;;;21.88;36.29
84755;BME280;74980;50.776;-3.082;2023-12-20T07:07:08;101801.13;;;21.83;36.30
84755;BME280;74980;50.776;-3.082;2023-12-20T07:09:34;101796.22;;;22.21;35.43
84755;BME280;74980;50.776;-3.082;2023-12-20T07:11:59;101786.64;;;22.03;36.97
84755;BME280;74980;50.776;-3.082;2023-12-20T07:14:25;101769.98;;;21.92;37.10
84755;BME280;74980;50.776;-3.082;2023-12-20T07:16:53;101764.59;;;22.41;36.02
84755;BME280;74980;50.776;-3.082;2023-12-20T07:19:18;101751.66;;;21.71;37.08
84755;BME280;74980;50.776;-3.082;2023-12-20T07:21:41;101748.33;;;21.71;36.52
84755;BME280;74980;50.776;-3.082;2023-12-20T07:24:09;101757.17;;;21.34;37.88
84755;BME280;74980;50.776;-3.082;2023-12-20T07:26:33;101735.13;;;22.09;36.18
84755;BME280;74980;50.776;-3.082;2023-12-20T07:28:58;101748.29;;;21.48;37.10
84755;BME280;74980;50.776;-3.082;2023-12-20T07:31:25;101747.60;;;21.59;36.89
84755;BME280;74980;50.776;-3.082;2023-12-20T07:33:50;101748.93;;;22.27;35.46
84755;BME280;74980;50.776;-3.082;2023-12-20T07:36:17;101766.02;;;22.04;35.70
84755;BME280;74980;50.776;-3.082;2023-12-20T07:38:40;101762.86;;;22.02;36.01
84755;BME280;74980;50.776;-3.082;2023-12-20T07:41:06;101747.27;;;22.47;35.27
84755;BME280;74980;50.776;-3.082;2023-12-20T07:43:33;101747.29;;;22.56;35.12
84755;BME280;74980;50.776;-3.082;2023-12-20T07:45:56;101755.74;;;22.69;34.94
84755;BME280;74980;50.776;-3.082;2023-12-20T07:48:21;101762.32;;;22.31;35.38
84755;BME280;74980;50.776;-3.082;2023-12-20T07:50:46;101764.33;;;22.40;35.26
84755;BME280;74980;50.776;-3.082;2023-12-20T07:53:12;101769.16;;;21.77;35.92
84755;BME280;74980;50.776;-3.082;2023-12-20T07:55:40;101763.71;;;22.29;35.45
84755;BME280;74980;50.776;-3.082;2023-12-20T07:58:05;101765.52;;;22.30;35.29
84755;BME280;74980;50.776;-3.082;2023-12-20T08:00:29;101760.15;;;22.46;35.00
84755;BME280;74980;50.776;-3.082;2023-12-20T08:02:54;101764.69;;;22.66;34.68
84755;BME280;74980;50.776;-3.082;2023-12-20T08:05:19;101771.75;;;22.58;34.83
84755;BME280;74980;50.776;-3.082;2023-12-20T08:07:45;101776.85;;;22.52;34.86
84755;BME280;74980;50.776;-3.082;2023-12-20T08:10:10;101774.82;;;22.41;35.01
84755;BME280;74980;50.776;-3.082;2023-12-20T08:12:36;101779.38;;;22.26;35.17
84755;BME280;74980;50.776;-3.082;2023-12-20T08:15:01;101781.93;;;22.38;34.70
84755;BME280;74980;50.776;-3.082;2023-12-20T08:17:27;101786.93;;;22.50;34.75
84755;BME280;74980;50.776;-3.082;2023-12-20T08:19:52;101777.58;;;22.75;34.42
84755;BME280;74980;50.776;-3.082;2023-12-20T08:22:19;101774.94;;;22.45;34.48
84755;BME280;74980;50.776;-3.082;2023-12-20T08:24:43;101774.68;;;22.61;34.60
84755;BME280;74980;50.776;-3.082;2023-12-20T08:27:09;101779.70;;;22.66;34.49
84755;BME280;74980;50.776;-3.082;2023-12-20T08:29:34;101770.85;;;22.34;34.62
84755;BME280;74980;50.776;-3.082;2023-12-20T08:32:00;101762.81;;;21.40;35.86
84755;BME280;74980;50.776;-3.082;2023-12-20T08:34:28;101756.82;;;22.54;34.66
84755;BME280;74980;50.776;-3.082;2023-12-20T08:36:50;101759.18;;;22.59;34.71
84755;BME280;74980;50.776;-3.082;2023-12-20T08:39:17;101759.48;;;21.91;35.28
84755;BME280;74980;50.776;-3.082;2023-12-20T08:41:42;101740.01;;;22.41;35.13
84755;BME280;74980;50.776;-3.082;2023-12-20T08:44:08;101739.41;;;22.47;35.17
84755;BME280;74980;50.776;-3.082;2023-12-20T08:46:33;101740.95;;;22.25;35.14
84755;BME280;74980;50.776;-3.082;2023-12-20T08:49:01;101751.33;;;22.33;35.44
84755;BME280;74980;50.776;-3.082;2023-12-20T08:51:25;101757.89;;;22.31;35.44
84755;BME280;74980;50.776;-3.082;2023-12-20T08:53:52;101759.35;;;22.71;35.16
84755;BME280;74980;50.776;-3.082;2023-12-20T08:56:15;101768.41;;;22.48;35.17
84755;BME280;74980;50.776;-3.082;2023-12-20T08:58:40;101764.97;;;22.51;35.13
84755;BME280;74980;50.776;-3.082;2023-12-20T09:01:06;101754.71;;;22.27;34.95
84755;BME280;74980;50.776;-3.082;2023-12-20T09:03:31;101757.00;;;22.59;34.74
84755;BME280;74980;50.776;-3.082;2023-12-20T09:05:57;101750.78;;;22.31;35.05
84755;BME280;74980;50.776;-3.082;2023-12-20T09:08:23;101750.51;;;22.33;35.64
84755;BME280;74980;50.776;-3.082;2023-12-20T09:10:48;101745.07;;;22.85;35.62
84755;BME280;74980;50.776;-3.082;2023-12-20T09:13:13;101749.03;;;22.78;35.80
84755;BME280;74980;50.776;-3.082;2023-12-20T09:15:40;101754.60;;;22.71;35.62
84755;BME280;74980;50.776;-3.082;2023-12-20T09:18:04;101764.73;;;22.63;36.12
84755;BME280;74980;50.776;-3.082;2023-12-20T09:20:29;101776.04;;;22.40;36.03
84755;BME280;74980;50.776;-3.082;2023-12-20T09:22:55;101770.14;;;22.63;36.05
84755;BME280;74980;50.776;-3.082;2023-12-20T09:25:20;101773.17;;;22.15;36.11
84755;BME280;74980;50.776;-3.082;2023-12-20T09:27:45;101773.46;;;22.11;36.08
84755;BME280;74980;50.776;-3.082;2023-12-20T09:30:12;101783.35;;;22.72;35.82
84755;BME280;74980;50.776;-3.082;2023-12-20T09:32:36;101773.11;;;22.61;35.79
84755;BME280;74980;50.776;-3.082;2023-12-20T09:35:02;101754.03;;;22.56;35.53
84755;BME280;74980;50.776;-3.082;2023-12-20T09:37:31;101763.73;;;22.27;35.97
84755;BME280;74980;50.776;-3.082;2023-12-20T09:39:53;101769.29;;;22.41;35.84
84755;BME280;74980;50.776;-3.082;2023-12-20T09:42:29;101774.69;;;22.45;35.69
84755;BME280;74980;50.776;-3.082;2023-12-20T09:44:45;101775.39;;;22.30;35.39
84755;BME280;74980;50.776;-3.082;2023-12-20T09:47:11;101775.91;;;22.79;35.45
84755;BME280;74980;50.776;-3.082;2023-12-20T09:49:36;101772.06;;;22.62;35.59
84755;BME280;74980;50.776;-3.082;2023-12-20T09:52:00;101759.19;;;22.39;35.26
84755;BME280;74980;50.776;-3.082;2023-12-20T09:54:26;101761.18;;;22.20;35.48
84755;BME280;74980;50.776;-3.082;2023-12-20T09:56:51;101763.39;;;22.80;35.25
84755;BME280;74980;50.776;-3.082;2023-12-20T09:59:17;101766.49;;;22.31;35.32
84755;BME280;74980;50.776;-3.082;2023-12-20T10:01:43;101758.71;;;22.24;35.36
84755;BME280;74980;50.776;-3.082;2023-12-20T10:04:09;101751.57;;;22.86;35.17
84755;BME280;74980;50.776;-3.082;2023-12-20T10:06:33;101751.49;;;22.33;35.51
84755;BME280;74980;50.776;-3.082;2023-12-20T10:09:00;101748.82;;;22.31;35.95
84755;BME280;74980;50.776;-3.082;2023-12-20T10:11:24;101747.18;;;21.44;37.09
84755;BME280;74980;50.776;-3.082;2023-12-20T10:13:52;101747.14;;;22.49;35.46
84755;BME280;74980;50.776;-3.082;2023-12-20T10:16:15;101738.83;;;22.52;35.08
84755;BME280;74980;50.776;-3.082;2023-12-20T10:18:41;101735.55;;;22.52;35.03
84755;BME280;74980;50.776;-3.082;2023-12-20T10:21:07;101728.55;;;22.61;34.81
84755;BME280;74980;50.776;-3.082;2023-12-20T10:23:32;101739.85;;;22.55;34.99
84755;BME280;74980;50.776;-3.082;2023-12-20T10:26:00;101742.78;;;22.69;35.04
84755;BME280;74980;50.776;-3.082;2023-12-20T10:28:26;101753.50;;;22.54;34.89
84755;BME280;74980;50.776;-3.082;2023-12-20T10:30:48;101761.08;;;22.58;34.94
84755;BME280;74980;50.776;-3.082;2023-12-20T10:35:42;101751.80;;;22.55;34.96
84755;BME280;74980;50.776;-3.082;2023-12-20T10:38:07;101740.23;;;22.78;34.95
84755;BME280;74980;50.776;-3.082;2023-12-20T10:40:34;101737.86;;;22.45;35.12
84755;BME280;74980;50.776;-3.082;2023-12-20T10:42:56;101738.82;;;22.54;34.96
84755;BME280;74980;50.776;-3.082;2023-12-20T10:45:21;101736.83;;;22.56;34.85
84755;BME280;74980;50.776;-3.082;2023-12-20T10:47:50;101740.83;;;22.54;34.86
84755;BME280;74980;50.776;-3.082;2023-12-20T10:50:12;101747.52;;;22.52;34.90
84755;BME280;74980;50.776;-3.082;2023-12-20T10:52:38;101748.00;;;22.67;34.61
84755;BME280;74980;50.776;-3.082;2023-12-20T10:55:02;101727.74;;;22.94;34.51
84755;BME280;74980;50.776;-3.082;2023-12-20T10:57:30;101718.85;;;22.77;34.52
84755;BME280;74980;50.776;-3.082;2023-12-20T10:59:57;101714.29;;;22.71;34.65
84755;BME280;74980;50.776;-3.082;2023-12-20T11:02:19;101699.47;;;22.90;34.78
84755;BME280;74980;50.776;-3.082;2023-12-20T11:04:50;101706.94;;;22.81;34.86
84755;BME280;74980;50.776;-3.082;2023-12-20T11:07:21;101699.99;;;22.56;34.89
84755;BME280;74980;50.776;-3.082;2023-12-20T11:09:40;101690.88;;;22.84;34.91
84755;BME280;74980;50.776;-3.082;2023-12-20T11:12:09;101671.31;;;22.73;34.59
84755;BME280;74980;50.776;-3.082;2023-12-20T11:14:33;101658.95;;;22.83;34.39
84755;BME280;74980;50.776;-3.082;2023-12-20T11:19:17;101633.79;;;22.76;34.53
84755;BME280;74980;50.776;-3.082;2023-12-20T11:21:43;101614.65;;;22.78;34.47
84755;BME280;74980;50.776;-3.082;2023-12-20T11:24:09;101633.30;;;23.08;34.42
84755;BME280;74980;50.776;-3.082;2023-12-20T11:26:34;101652.20;;;22.79;34.52
84755;BME280;74980;50.776;-3.082;2023-12-20T11:31:25;101629.12;;;22.70;34.54
84755;BME280;74980;50.776;-3.082;2023-12-20T11:33:50;101628.36;;;22.66;34.54
84755;BME280;74980;50.776;-3.082;2023-12-20T11:36:18;101617.66;;;22.86;34.25
84755;BME280;74980;50.776;-3.082;2023-12-20T11:41:12;101628.46;;;22.79;34.28
84755;BME280;74980;50.776;-3.082;2023-12-20T11:43:36;101612.35;;;23.30;34.33
84755;BME280;74980;50.776;-3.082;2023-12-20T11:46:04;101615.76;;;22.82;34.26
84755;BME280;74980;50.776;-3.082;2023-12-20T11:48:25;101628.11;;;22.80;34.31
84755;BME280;74980;50.776;-3.082;2023-12-20T11:50:50;101624.94;;;23.01;33.90
84755;BME280;74980;50.776;-3.082;2023-12-20T11:53:14;101616.96;;;23.18;34.11
84755;BME280;74980;50.776;-3.082;2023-12-20T11:55:39;101609.23;;;22.85;34.20
84755;BME280;74980;50.776;-3.082;2023-12-20T11:58:08;101606.29;;;23.03;34.19
84755;BME280;74980;50.776;-3.082;2023-12-20T12:00:30;101594.35;;;23.01;34.24
84755;BME280;74980;50.776;-3.082;2023-12-20T12:03:02;101592.22;;;23.30;34.16
84755;BME280;74980;50.776;-3.082;2023-12-20T12:05:21;101585.51;;;22.68;34.31
84755;BME280;74980;50.776;-3.082;2023-12-20T12:07:46;101576.02;;;22.75;34.25
84755;BME280;74980;50.776;-3.082;2023-12-20T12:10:12;101567.09;;;22.96;34.33
84755;BME280;74980;50.776;-3.082;2023-12-20T12:12:39;101558.40;;;22.77;34.16
84755;BME280;74980;50.776;-3.082;2023-12-20T12:15:03;101555.53;;;22.75;34.09
84755;BME280;74980;50.776;-3.082;2023-12-20T12:17:30;101552.80;;;22.92;33.87
84755;BME280;74980;50.776;-3.082;2023-12-20T12:20:02;101562.87;;;22.78;34.06
84755;BME280;74980;50.776;-3.082;2023-12-20T12:22:20;101562.93;;;22.89;33.95
84755;BME280;74980;50.776;-3.082;2023-12-20T12:24:46;101549.72;;;22.91;33.83
84755;BME280;74980;50.776;-3.082;2023-12-20T12:27:11;101548.63;;;22.96;33.75
84755;BME280;74980;50.776;-3.082;2023-12-20T12:29:36;101543.25;;;22.83;33.97
84755;BME280;74980;50.776;-3.082;2023-12-20T12:32:02;101525.30;;;22.86;33.93
84755;BME280;74980;50.776;-3.082;2023-12-20T12:34:27;101508.62;;;22.82;33.95
84755;BME280;74980;50.776;-3.082;2023-12-20T12:36:52;101504.05;;;22.70;34.11
84755;BME280;74980;50.776;-3.082;2023-12-20T12:39:17;101506.42;;;22.71;34.15